Lancaster, OH (43130)

10:32 PM EDT op 30 augustus 2014 (GMT -0400)
Fairfield County Weather | Change Station
CLOSE
Current Station
Persoonlijk weerstation
Location: Lancaster, OH
Geometrische hoogte: 958 ft
Nabije weerstations

Hoogte 958 ft 39.75 °N, 82.57 °W | Updated 8 seconds ago

Scattered Clouds
Licht bewolkt
76.0 °F
Voelt als 77 °F
N
0.0
Wind Variabel Wind van ZZW
Gusts 0.0 mijl/u

Vandaag
Hoog -- | Laag -- °F
--% Kans op neerslag
Gisteren
Hoog -- | Laag -- °F
Precip. -- inches
6:56 AM 8:04 PM
Wassende halvemaan, 26% visible
Druk 30.03 inches
Zicht 10.0 mijlen
Wolken Licht bewolkt 11000 ft
Warmteindex 77 °F
Dauwpunt 68 °F
Vochtigheid 77%
Neerslag 0.00 inches
Dikte sneeuw Niet beschikbaar.
UV 0 van de 12
Pollen 11.10 van de 12
Ozon Goed
PM2.5 Matig
Flu Activity Niet beschikbaar.
METAR KLHQ 310153Z AUTO 21004KT 10SM SCT110 24/20 A3005 RMK AO2 RAB24E53 SLP168 P0000 T02390200

More Conditions Fewer Conditions

Druk 30.03 inches
Zicht 10.0 mijlen
Wolken Licht bewolkt 11000 ft
Warmteindex 77 °F
Dauwpunt 68 °F
Vochtigheid 77%
Neerslag 0.00 inches
Dikte sneeuw Niet beschikbaar.
UV 0 van de 12
Pollen 11.10 van de 12
Ozon Goed
PM2.5 Matig
Flu Activity Niet beschikbaar.
METAR KLHQ 310153Z AUTO 21004KT 10SM SCT110 24/20 A3005 RMK AO2 RAB24E53 SLP168 P0000 T02390200

More Conditions Fewer Conditions

10-Day Weather Forecast

Almanac

Astronomie

Aug. 30, 2014 Opkomst Ondergang
Werkelijke tijd 6:56 AM EDT 8:04 PM EDT
Burgerlijke schemering 6:28 AM EDT 8:32 PM EDT
Nautische schemering 5:55 AM EDT 9:05 PM EDT
Astronomische schemering 5:21 AM EDT 9:39 PM EDT
Maan 11:42 AM EDT (8/30) 10:39 PM EDT (8/30)
Golflengte van het zichtbare licht 14h 03m
Daglengte
13h 08m
Tomorrow will be 2m 29s shorter.
Wassende halvemaan, 26% of the Moon is Illuminated
Vandaag
Wassende halvemaan
sep 2
Eerste kwartier
sep 8
Volle maan
sep 15
Laatste kwartier
sep 24
Nieuw

Extremen vandaag

State Highs State Lows

Community

WunderPhotos

Upload Photos

1,748,748 foto’s ge-upload!

Nearby

Luchtkwaliteit

  Luchtkwaliteit LK-index Verontreinigende stof
Gisteren Matig
OZONE
Gisteren Goed
PM2.5
Actueel Matig
PM2.5
Actueel Goed
OZONE
zaterdag Matig
OZONE
zaterdag Matig
PM2.5
zondag Goed
OZONE
zondag Goed
PM2.5
maandag Goed
PM2.5
maandag Goed
OZONE
dinsdag Goed
OZONE
dinsdag Goed
PM2.5
woensdag Matig
PM2.5
woensdag Matig
OZONE
donderdag Matig
OZONE
donderdag Matig
PM2.5

Dikte sneeuw

Station Depth Geometrische hoogte
Er is geen verse sneeuw gerapporteerd.

Aardbevingen

Stad Distance Mag. Time & Date
No recent earthquake activity has been reported nearby.
Minimum magnitude displayed is 2.5.

Watertemperatuur langs de kust

Plaats Temperatuur
Geen meldingen van stations

Nabije weerstations